Time;durP1;ratioP1;P1;durP2;ratioP2;P2;SDS_P1;SDS_P2;PMS_P1;PMS_P2;Temp;Humidity;BMP_temperature;BMP_pressure;BME280_temperature;BME280_humidity;BME280_pressure;Samples;Min_cycle;Max_cycle;Signal;HPM_P1;HPM_P2
2023/07/14 00:01:57;;;;;;;;;;;;;;;;;;5070873;28;20305;-68
2023/07/14 00:04:27;;;;;;;;;;;;;;;;;;5070460;28;19924;-68
2023/07/14 00:06:54;;;;;;;;;;;;;;;;;;5070474;28;20370;-68
2023/07/14 00:09:24;;;;;;;;;;;;;;;;;;5070129;28;19932;-68
2023/07/14 00:11:50;;;;;;;;;;;;;;;;;;5070728;28;19928;-67
2023/07/14 00:14:16;;;;;;;;;;;;;;;;;;5070511;28;19928;-68
2023/07/14 00:16:44;;;;;;;;;;;;;;;;;;5070476;28;20003;-68
2023/07/14 00:19:12;;;;;;;;;;;;;;;;;;5070570;28;20328;-68
2023/07/14 00:21:38;;;;;;;;;;;;;;;;;;5069634;28;19970;-68
2023/07/14 00:24:10;;;;;;;;;;;;;;;;;;5070733;28;20023;-68
2023/07/14 00:26:36;;;;;;;;;;;;;;;;;;5070119;28;20027;-68
2023/07/14 00:29:05;;;;;;;;;;;;;;;;;;5070670;28;19931;-68
2023/07/14 00:31:31;;;;;;;;;;;;;;;;;;5071337;28;19932;-67
2023/07/14 00:33:58;;;;;;;;;;;;;;;;;;5073883;28;19924;-67
2023/07/14 00:36:24;;;;;;;;;;;;;;;;;;5073545;28;20007;-68
2023/07/14 00:38:51;;;;;;;;;;;;;;;;;;5073040;28;19925;-68
2023/07/14 00:41:21;;;;;;;;;;;;;;;;;;5073430;28;20018;-68
2023/07/14 00:43:49;;;;;;;;;;;;;;;;;;5074081;28;20475;-67
2023/07/14 00:46:22;;;;;;;;;;;;;;;;;;5073791;28;20409;-68
2023/07/14 00:48:49;;;;;;;;;;;;;;;;;;5073851;28;19935;-68
2023/07/14 00:51:17;;;;;;;;;;;;;;;;;;5073802;28;20305;-68
2023/07/14 00:53:44;;;;;;;;;;;;;;;;;;5073853;28;19931;-67
2023/07/14 00:56:29;;;;;;;;;;;;;;;;;;5074178;28;20336;-68
2023/07/14 00:58:57;;;;;;;;;;;;;;;;;;5073753;28;20015;-67
2023/07/14 01:01:24;;;;;;;;;;;;;;;;;;5073417;28;19928;-68
2023/07/14 01:03:51;;;;;;;;;;;;;;;;;;5073301;28;19931;-68
2023/07/14 01:06:19;;;;;;;;;;;;;;;;;;5073792;28;19936;-68
2023/07/14 01:08:48;;;;;;;;;;;;;;;;;;5072998;28;19930;-68
2023/07/14 01:11:15;;;;;;;;;;;;;;;;;;5073263;28;19925;-68
2023/07/14 01:13:42;;;;;;;;;;;;;;;;;;5073269;28;19931;-68
2023/07/14 01:16:10;;;;;;;;;;;;;;;;;;5073421;28;19924;-67
2023/07/14 01:18:36;;;;;;;;;;;;;;;;;;5072993;28;20382;-68
2023/07/14 01:21:03;;;;;;;;;;;;;;;;;;5073205;28;19924;-68
2023/07/14 01:23:41;;;;;;;;;;;;;;;;;;5072809;28;19931;-68
2023/07/14 01:26:18;;;;;;;;;;;;;;;;;;5073334;28;19931;-67
2023/07/14 01:28:46;;;;;;;;;;;;;;;;;;5073020;28;20312;-68
2023/07/14 01:31:15;;;;;;;;;;;;;;;;;;5072930;28;20011;-68
2023/07/14 01:33:42;;;;;;;;;;;;;;;;;;5072986;28;19932;-68
2023/07/14 01:36:08;;;;;;;;;;;;;;;;;;5073349;28;19924;-68
2023/07/14 01:38:35;;;;;;;;;;;;;;;;;;5072886;28;19931;-68
2023/07/14 01:41:02;;;;;;;;;;;;;;;;;;5070901;28;19933;-67
2023/07/14 01:43:28;;;;;;;;;;;;;;;;;;5072844;28;19924;-68
2023/07/14 01:45:58;;;;;;;;;;;;;;;;;;5072230;28;20285;-68
2023/07/14 01:48:25;;;;;;;;;;;;;;;;;;5072729;28;19924;-68
2023/07/14 01:50:54;;;;;;;;;;;;;;;;;;5070206;28;19925;-67
2023/07/14 01:53:22;;;;;;;;;;;;;;;;;;5072475;28;19928;-68
2023/07/14 01:55:50;;;;;;;;;;;;;;;;;;5072567;28;20556;-68
2023/07/14 01:58:20;;;;;;;;;;;;;;;;;;5072936;28;19928;-68
2023/07/14 02:00:47;;;;;;;;;;;;;;;;;;5072290;28;20403;-67
2023/07/14 02:03:19;;;;;;;;;;;;;;;;;;5073049;28;19931;-68
2023/07/14 02:05:46;;;;;;;;;;;;;;;;;;5072097;28;19925;-68
2023/07/14 02:08:14;;;;;;;;;;;;;;;;;;5072988;28;19924;-68
2023/07/14 02:10:41;;;;;;;;;;;;;;;;;;5072362;28;19924;-68
2023/07/14 02:13:07;;;;;;;;;;;;;;;;;;5072427;28;19935;-67
2023/07/14 02:15:34;;;;;;;;;;;;;;;;;;5072335;28;19925;-68
2023/07/14 02:18:01;;;;;;;;;;;;;;;;;;5071784;28;19925;-68
2023/07/14 02:20:31;;;;;;;;;;;;;;;;;;5070704;28;19935;-67
2023/07/14 02:22:57;;;;;;;;;;;;;;;;;;5071879;28;19936;-67
2023/07/14 02:25:26;;;;;;;;;;;;;;;;;;5072348;28;20297;-67
2023/07/14 02:27:53;;;;;;;;;;;;;;;;;;5071693;28;19924;-67
2023/07/14 02:30:20;;;;;;;;;;;;;;;;;;5071698;28;19924;-67
2023/07/14 02:32:48;;;;;;;;;;;;;;;;;;5071779;28;20017;-67
2023/07/14 02:35:30;;;;;;;;;;;;;;;;;;5071159;28;19933;-68
2023/07/14 02:38:03;;;;;;;;;;;;;;;;;;5071896;28;19935;-68
2023/07/14 02:40:30;;;;;;;;;;;;;;;;;;5071684;28;19930;-68
2023/07/14 02:42:57;;;;;;;;;;;;;;;;;;5071739;28;19946;-67
2023/07/14 02:45:24;;;;;;;;;;;;;;;;;;5059279;28;19935;-67
2023/07/14 02:47:51;;;;;;;;;;;;;;;;;;5051794;28;19925;-68
2023/07/14 02:50:17;;;;;;;;;;;;;;;;;;5051388;28;19925;-68
2023/07/14 02:52:44;;;;;;;;;;;;;;;;;;5070006;28;19924;-68
2023/07/14 02:55:12;;;;;;;;;;;;;;;;;;5070361;28;20016;-68
2023/07/14 02:57:38;;;;;;;;;;;;;;;;;;5071331;28;19935;-68
2023/07/14 03:00:07;;;;;;;;;;;;;;;;;;5070791;28;19931;-68
2023/07/14 03:02:34;;;;;;;;;;;;;;;;;;5071265;28;20285;-68
2023/07/14 03:05:00;;;;;;;;;;;;;;;;;;5071362;28;19924;-68
2023/07/14 03:07:27;;;;;;;;;;;;;;;;;;5070622;28;19924;-68
2023/07/14 03:09:53;;;;;;;;;;;;;;;;;;5069842;28;20015;-68
2023/07/14 03:12:21;;;;;;;;;;;;;;;;;;5071059;28;19931;-68
2023/07/14 03:14:47;;;;;;;;;;;;;;;;;;5071807;28;19944;-68
2023/07/14 03:17:14;;;;;;;;;;;;;;;;;;5072062;28;20348;-68
2023/07/14 03:19:40;;;;;;;;;;;;;;;;;;5072463;28;19924;-68
2023/07/14 03:22:07;;;;;;;;;;;;;;;;;;5071770;28;19924;-68
2023/07/14 03:24:33;;;;;;;;;;;;;;;;;;5069976;28;19924;-67
2023/07/14 03:26:59;;;;;;;;;;;;;;;;;;5070808;28;19924;-68
2023/07/14 03:29:27;;;;;;;;;;;;;;;;;;5070761;28;20014;-67
2023/07/14 03:31:54;;;;;;;;;;;;;;;;;;5070972;28;19931;-67
2023/07/14 03:34:22;;;;;;;;;;;;;;;;;;5070705;28;20377;-67
2023/07/14 03:36:49;;;;;;;;;;;;;;;;;;5070869;28;19928;-67
2023/07/14 03:39:19;;;;;;;;;;;;;;;;;;5071086;28;19924;-67
2023/07/14 03:41:45;;;;;;;;;;;;;;;;;;5070456;28;19924;-67
2023/07/14 03:44:12;;;;;;;;;;;;;;;;;;5070121;28;19928;-68
2023/07/14 03:46:39;;;;;;;;;;;;;;;;;;5091349;22;19924;-66
2023/07/14 03:49:06;;;;;;;;;;;;;;;;;;5088971;28;19924;-65
2023/07/14 03:51:33;;;;;;;;;;;;;;;;;;5090327;28;19949;-65
2023/07/14 03:53:59;;;;;;;;;;;;;;;;;;5090459;28;20435;-67
2023/07/14 03:56:26;;;;;;;;;;;;;;;;;;5089993;28;19928;-67
2023/07/14 03:58:52;;;;;;;;;;;;;;;;;;5090614;28;19930;-67
2023/07/14 04:01:19;;;;;;;;;;;;;;;;;;5089800;28;19924;-67
2023/07/14 04:03:47;;;;;;;;;;;;;;;;;;5090555;28;19924;-67
2023/07/14 04:06:14;;;;;;;;;;;;;;;;;;5093053;28;19928;-67
2023/07/14 04:08:42;;;;;;;;;;;;;;;;;;5091548;28;19934;-67
2023/07/14 04:11:09;;;;;;;;;;;;;;;;;;5093339;28;20385;-67
2023/07/14 04:13:36;;;;;;;;;;;;;;;;;;5094806;28;19924;-67
2023/07/14 04:16:03;;;;;;;;;;;;;;;;;;5094297;28;19924;-68
2023/07/14 04:18:29;;;;;;;;;;;;;;;;;;5094531;28;19934;-68
2023/07/14 04:21:01;;;;;;;;;;;;;;;;;;5093988;28;20389;-68
2023/07/14 04:23:27;;;;;;;;;;;;;;;;;;5094346;28;19930;-68
2023/07/14 04:25:54;;;;;;;;;;;;;;;;;;5094550;28;19924;-67
2023/07/14 04:28:20;;;;;;;;;;;;;;;;;;5094025;28;20285;-68
2023/07/14 04:30:52;;;;;;;;;;;;;;;;;;5093869;28;19924;-67
2023/07/14 04:33:19;;;;;;;;;;;;;;;;;;5093908;28;20149;-67
2023/07/14 04:35:46;;;;;;;;;;;;;;;;;;5093833;28;19931;-67
2023/07/14 04:38:13;;;;;;;;;;;;;;;;;;5093783;28;19924;-67
2023/07/14 04:40:40;;;;;;;;;;;;;;;;;;5093809;28;19935;-67
2023/07/14 04:43:06;;;;;;;;;;;;;;;;;;5093646;28;19930;-67
2023/07/14 04:45:37;;;;;;;;;;;;;;;;;;5093912;28;20377;-67
2023/07/14 04:48:04;;;;;;;;;;;;;;;;;;5093250;28;19930;-67
2023/07/14 04:50:30;;;;;;;;;;;;;;;;;;5092077;28;19935;-67
2023/07/14 04:52:56;;;;;;;;;;;;;;;;;;5093602;28;19931;-67
2023/07/14 04:55:24;;;;;;;;;;;;;;;;;;5093864;28;20198;-67
2023/07/14 04:57:50;;;;;;;;;;;;;;;;;;5093747;28;20385;-67
2023/07/14 05:00:20;;;;;;;;;;;;;;;;;;5093900;28;20329;-67
2023/07/14 05:02:46;;;;;;;;;;;;;;;;;;5093607;28;19947;-67
2023/07/14 05:05:13;;;;;;;;;;;;;;;;;;5092727;28;19924;-67
2023/07/14 05:07:40;;;;;;;;;;;;;;;;;;5093764;28;19927;-67
2023/07/14 05:10:07;;;;;;;;;;;;;;;;;;5092935;28;19924;-67
2023/07/14 05:12:34;;;;;;;;;;;;;;;;;;5093721;28;19930;-67
2023/07/14 05:15:02;;;;;;;;;;;;;;;;;;5093087;28;19924;-67
2023/07/14 05:17:29;;;;;;;;;;;;;;;;;;5092392;28;19978;-67
2023/07/14 05:19:55;;;;;;;;;;;;;;;;;;5092859;28;20384;-67
2023/07/14 05:22:21;;;;;;;;;;;;;;;;;;5093382;28;19928;-67
2023/07/14 05:24:48;;;;;;;;;;;;;;;;;;5093119;28;19924;-67
2023/07/14 05:27:14;;;;;;;;;;;;;;;;;;5093608;28;19924;-67
2023/07/14 05:29:42;;;;;;;;;;;;;;;;;;5093003;28;20412;-67
2023/07/14 05:32:08;;;;;;;;;;;;;;;;;;5093306;28;19924;-67
2023/07/14 05:34:35;;;;;;;;;;;;;;;;;;5093276;28;19924;-67
2023/07/14 05:37:01;;;;;;;;;;;;;;;;;;5092894;28;19930;-67
2023/07/14 05:39:28;;;;;;;;;;;;;;;;;;5092941;28;19924;-67
2023/07/14 05:41:58;;;;;;;;;;;;;;;;;;5092542;28;19924;-67
2023/07/14 05:44:24;;;;;;;;;;;;;;;;;;5092855;28;19985;-67
2023/07/14 05:46:52;;;;;;;;;;;;;;;;;;5092241;28;19932;-67
2023/07/14 05:49:18;;;;;;;;;;;;;;;;;;5093320;28;20330;-67
2023/07/14 05:51:45;;;;;;;;;;;;;;;;;;5090823;28;19924;-67
2023/07/14 05:54:11;;;;;;;;;;;;;;;;;;5092832;28;19946;-67
2023/07/14 05:56:37;;;;;;;;;;;;;;;;;;5092283;28;19924;-67
2023/07/14 05:59:04;;;;;;;;;;;;;;;;;;5092298;28;19968;-67
2023/07/14 06:01:30;;;;;;;;;;;;;;;;;;5091583;28;20305;-67
2023/07/14 06:03:59;;;;;;;;;;;;;;;;;;5092749;28;19931;-67
2023/07/14 06:06:26;;;;;;;;;;;;;;;;;;5092430;28;20452;-68
2023/07/14 06:08:53;;;;;;;;;;;;;;;;;;5092338;28;19924;-67
2023/07/14 06:11:20;;;;;;;;;;;;;;;;;;5092017;28;19931;-67
2023/07/14 06:13:46;;;;;;;;;;;;;;;;;;5091572;28;19924;-67
2023/07/14 06:16:13;;;;;;;;;;;;;;;;;;5092463;28;20325;-67
2023/07/14 06:18:39;;;;;;;;;;;;;;;;;;5091762;28;19932;-67
2023/07/14 06:21:08;;;;;;;;;;;;;;;;;;5092012;28;19928;-67
2023/07/14 06:23:34;;;;;;;;;;;;;;;;;;5091858;28;19924;-67
2023/07/14 06:26:01;;;;;;;;;;;;;;;;;;5092184;28;20413;-67
2023/07/14 06:28:27;;;;;;;;;;;;;;;;;;5091375;28;20298;-67
2023/07/14 06:30:56;;;;;;;;;;;;;;;;;;5091614;28;19925;-67
2023/07/14 06:33:23;;;;;;;;;;;;;;;;;;5091685;28;20304;-67
2023/07/14 06:35:49;;;;;;;;;;;;;;;;;;5092165;28;20018;-67
2023/07/14 06:38:17;;;;;;;;;;;;;;;;;;5091539;28;20395;-66
2023/07/14 06:40:44;;;;;;;;;;;;;;;;;;5091638;28;20399;-67
2023/07/14 06:43:11;;;;;;;;;;;;;;;;;;5091669;28;19927;-67
2023/07/14 06:45:37;;;;;;;;;;;;;;;;;;5091718;28;20358;-67
2023/07/14 06:48:04;;;;;;;;;;;;;;;;;;5092238;28;19924;-67
2023/07/14 06:50:30;;;;;;;;;;;;;;;;;;5090903;28;20297;-67
2023/07/14 06:52:57;;;;;;;;;;;;;;;;;;5091582;28;19930;-67
2023/07/14 06:55:24;;;;;;;;;;;;;;;;;;5090218;28;20301;-67
2023/07/14 06:57:52;;;;;;;;;;;;;;;;;;5091748;28;19928;-67
2023/07/14 07:00:20;;;;;;;;;;;;;;;;;;5090622;28;19975;-67
2023/07/14 07:02:47;;;;;;;;;;;;;;;;;;5086030;28;19928;-67
2023/07/14 07:05:13;;;;;;;;;;;;;;;;;;5081217;28;19924;-67
2023/07/14 07:07:40;;;;;;;;;;;;;;;;;;5082662;28;19924;-67
2023/07/14 07:10:07;;;;;;;;;;;;;;;;;;5090288;28;19930;-67
2023/07/14 07:12:35;;;;;;;;;;;;;;;;;;5088878;28;20366;-67
2023/07/14 07:15:02;;;;;;;;;;;;;;;;;;5091142;28;19928;-66
2023/07/14 07:17:29;;;;;;;;;;;;;;;;;;5090056;28;19924;-67
2023/07/14 07:19:55;;;;;;;;;;;;;;;;;;5090362;28;19924;-67
2023/07/14 07:22:21;;;;;;;;;;;;;;;;;;5090036;28;20369;-67
2023/07/14 07:24:48;;;;;;;;;;;;;;;;;;5090820;28;19932;-67
2023/07/14 07:27:14;;;;;;;;;;;;;;;;;;5090188;28;19931;-67
2023/07/14 07:29:42;;;;;;;;;;;;;;;;;;5090427;28;20022;-67
2023/07/14 07:32:09;;;;;;;;;;;;;;;;;;5090623;28;19977;-67
2023/07/14 07:34:35;;;;;;;;;;;;;;;;;;5091422;28;20369;-67
2023/07/14 07:37:02;;;;;;;;;;;;;;;;;;5090557;28;20006;-67
2023/07/14 07:39:29;;;;;;;;;;;;;;;;;;5090241;28;19924;-67
2023/07/14 07:41:55;;;;;;;;;;;;;;;;;;5090099;28;20305;-67
2023/07/14 07:44:22;;;;;;;;;;;;;;;;;;5084339;28;19931;-68
2023/07/14 07:46:50;;;;;;;;;;;;;;;;;;5086991;28;19928;-67
2023/07/14 07:49:16;;;;;;;;;;;;;;;;;;5085358;28;20358;-67
2023/07/14 07:51:42;;;;;;;;;;;;;;;;;;5085857;28;19924;-67
2023/07/14 07:54:09;;;;;;;;;;;;;;;;;;5082342;28;19924;-67
2023/07/14 07:56:35;;;;;;;;;;;;;;;;;;5084850;28;19924;-67
2023/07/14 07:59:01;;;;;;;;;;;;;;;;;;5089597;28;20091;-67
2023/07/14 08:01:28;;;;;;;;;;;;;;;;;;5085252;28;19971;-67
2023/07/14 08:03:55;;;;;;;;;;;;;;;;;;5089771;28;20304;-67
2023/07/14 08:06:24;;;;;;;;;;;;;;;;;;5085316;28;19977;-67
2023/07/14 08:08:51;;;;;;;;;;;;;;;;;;5086993;28;19966;-67
2023/07/14 08:11:17;;;;;;;;;;;;;;;;;;5088390;28;19938;-67
2023/07/14 08:13:43;;;;;;;;;;;;;;;;;;5087518;28;19931;-67
2023/07/14 08:16:10;;;;;;;;;;;;;;;;;;5089955;28;19924;-67
2023/07/14 08:18:37;;;;;;;;;;;;;;;;;;5085934;28;20060;-67
2023/07/14 08:21:05;;;;;;;;;;;;;;;;;;5083662;28;20464;-67
2023/07/14 08:23:34;;;;;;;;;;;;;;;;;;5088209;28;19924;-67
2023/07/14 08:26:01;;;;;;;;;;;;;;;;;;5089525;28;19924;-67
2023/07/14 08:28:28;;;;;;;;;;;;;;;;;;5081133;28;19925;-67
2023/07/14 08:30:56;;;;;;;;;;;;;;;;;;5088914;28;20335;-67
2023/07/14 08:33:22;;;;;;;;;;;;;;;;;;5078172;28;20343;-67
2023/07/14 08:35:49;;;;;;;;;;;;;;;;;;5088709;28;19930;-67
2023/07/14 08:38:17;;;;;;;;;;;;;;;;;;5089683;28;19934;-67
2023/07/14 08:40:48;;;;;;;;;;;;;;;;;;5086638;28;19924;-67
2023/07/14 08:43:18;;;;;;;;;;;;;;;;;;5089591;28;19924;-67
2023/07/14 08:45:45;;;;;;;;;;;;;;;;;;5082514;28;19930;-67
2023/07/14 08:48:19;;;;;;;;;;;;;;;;;;5076662;28;19928;-67
2023/07/14 08:50:47;;;;;;;;;;;;;;;;;;5086536;28;20377;-67
2023/07/14 08:53:17;;;;;;;;;;;;;;;;;;5085113;28;19924;-67
2023/07/14 08:55:45;;;;;;;;;;;;;;;;;;5089312;28;19932;-67
2023/07/14 08:58:14;;;;;;;;;;;;;;;;;;5095590;28;20188;-67
2023/07/14 09:00:43;;;;;;;;;;;;;;;;;;5086896;28;20373;-67
2023/07/14 09:03:12;;;;;;;;;;;;;;;;;;5084818;28;20404;-67
2023/07/14 09:05:40;;;;;;;;;;;;;;;;;;5089345;28;19946;-67
2023/07/14 09:08:09;;;;;;;;;;;;;;;;;;5090304;28;19924;-67
2023/07/14 09:10:39;;;;;;;;;;;;;;;;;;5084255;28;20301;-67
2023/07/14 09:13:11;;;;;;;;;;;;;;;;;;5086285;28;20187;-67
2023/07/14 09:15:37;;;;;;;;;;;;;;;;;;5087924;28;20366;-67
2023/07/14 09:18:13;;;;;;;;;;;;;;;;;;5087975;28;20385;-67
2023/07/14 09:20:55;;;;;;;;;;;;;;;;;;5089090;28;20396;-67
2023/07/14 09:23:36;;;;;;;;;;;;;;;;;;5082949;28;19924;-67
2023/07/14 09:26:05;;;;;;;;;;;;;;;;;;5092571;28;19963;-67
2023/07/14 09:28:35;;;;;;;;;;;;;;;;;;5091217;28;19924;-67
2023/07/14 09:31:05;;;;;;;;;;;;;;;;;;5083677;28;19995;-67
2023/07/14 09:33:41;;;;;;;;;;;;;;;;;;5083971;28;19931;-67
2023/07/14 09:36:09;;;;;;;;;;;;;;;;;;5080822;28;20282;-67
2023/07/14 09:38:41;;;;;;;;;;;;;;;;;;5085975;28;19924;-67
2023/07/14 09:41:11;;;;;;;;;;;;;;;;;;5090359;28;19969;-67
2023/07/14 09:43:39;;;;;;;;;;;;;;;;;;5088399;28;20012;-67
2023/07/14 09:46:05;;;;;;;;;;;;;;;;;;5101970;22;19931;-69
2023/07/14 09:48:33;;;;;;;;;;;;;;;;;;5039882;28;19929;-68
2023/07/14 09:51:01;;;;;;;;;;;;;;;;;;5050331;28;19924;-69
2023/07/14 09:53:28;;;;;;;;;;;;;;;;;;5042691;28;19929;-68
2023/07/14 09:55:57;;;;;;;;;;;;;;;;;;5040420;28;20269;-69
2023/07/14 09:58:25;;;;;;;;;;;;;;;;;;5036909;28;19924;-66
2023/07/14 10:00:54;;;;;;;;;;;;;;;;;;5039457;28;19952;-68
2023/07/14 10:03:20;;;;;;;;;;;;;;;;;;5040944;28;19925;-68
2023/07/14 10:05:52;;;;;;;;;;;;;;;;;;5039107;28;20023;-69
2023/07/14 10:08:33;;;;;;;;;;;;;;;;;;5035492;28;19933;-69
2023/07/14 10:11:05;;;;;;;;;;;;;;;;;;5051961;28;20357;-70
2023/07/14 10:13:37;;;;;;;;;;;;;;;;;;5051675;28;19931;-69
2023/07/14 10:16:07;;;;;;;;;;;;;;;;;;5050448;28;20325;-69
2023/07/14 10:18:45;;;;;;;;;;;;;;;;;;5045996;28;19939;-69
2023/07/14 10:21:16;;;;;;;;;;;;;;;;;;5043783;28;20398;-69
2023/07/14 10:23:56;;;;;;;;;;;;;;;;;;5052331;28;19924;-69
2023/07/14 10:26:23;;;;;;;;;;;;;;;;;;5047284;28;19925;-69
2023/07/14 10:28:51;;;;;;;;;;;;;;;;;;5048440;28;19928;-69
2023/07/14 10:31:24;;;;;;;;;;;;;;;;;;5046546;28;20015;-68
2023/07/14 10:33:57;;;;;;;;;;;;;;;;;;5045004;28;20358;-68
2023/07/14 10:36:26;;;;;;;;;;;;;;;;;;5048181;28;20386;-68
2023/07/14 10:38:56;;;;;;;;;;;;;;;;;;5051716;28;20499;-68
2023/07/14 10:41:23;;;;;;;;;;;;;;;;;;5051634;28;19931;-68
2023/07/14 10:43:52;;;;;;;;;;;;;;;;;;5051351;28;19933;-68
2023/07/14 10:46:22;;;;;;;;;;;;;;;;;;5051890;28;19931;-68
2023/07/14 10:48:52;;;;;;;;;;;;;;;;;;5051063;28;20024;-68
2023/07/14 10:51:36;;;;;;;;;;;;;;;;;;5051576;28;19929;-68
2023/07/14 10:54:06;;;;;;;;;;;;;;;;;;5051380;28;19925;-68
2023/07/14 10:56:34;;;;;;;;;;;;;;;;;;5052141;28;19924;-69
2023/07/14 10:59:04;;;;;;;;;;;;;;;;;;5051354;28;19931;-68
2023/07/14 11:01:34;;;;;;;;;;;;;;;;;;5051704;28;19987;-69
2023/07/14 11:04:15;;;;;;;;;;;;;;;;;;5051303;28;20012;-69
2023/07/14 11:06:43;;;;;;;;;;;;;;;;;;5050054;28;19931;-68
2023/07/14 11:09:11;;;;;;;;;;;;;;;;;;5050131;28;20285;-68
2023/07/14 11:11:40;;;;;;;;;;;;;;;;;;5049670;28;19932;-68
2023/07/14 11:14:14;;;;;;;;;;;;;;;;;;5050289;28;19932;-66
2023/07/14 11:16:49;;;;;;;;;;;;;;;;;;5051103;28;19943;-66
2023/07/14 11:19:21;;;;;;;;;;;;;;;;;;5050796;28;19931;-66
2023/07/14 11:21:49;;;;;;;;;;;;;;;;;;5050868;28;20430;-66
2023/07/14 11:24:18;;;;;;;;;;;;;;;;;;5050894;28;19928;-66
2023/07/14 11:26:51;;;;;;;;;;;;;;;;;;5050987;28;19924;-66
2023/07/14 11:29:20;;;;;;;;;;;;;;;;;;5051311;28;19971;-67
2023/07/14 11:31:50;;;;;;;;;;;;;;;;;;5050381;28;19925;-67
2023/07/14 11:34:23;;;;;;;;;;;;;;;;;;5051124;28;20271;-67
2023/07/14 11:36:57;;;;;;;;;;;;;;;;;;5049507;28;20135;-67
2023/07/14 11:39:31;;;;;;;;;;;;;;;;;;5048840;28;19925;-67
2023/07/14 11:41:59;;;;;;;;;;;;;;;;;;5050702;28;19975;-68
2023/07/14 11:44:25;;;;;;;;;;;;;;;;;;5051005;28;19925;-67
2023/07/14 11:46:52;;;;;;;;;;;;;;;;;;5050223;28;20309;-67
2023/07/14 11:49:25;;;;;;;;;;;;;;;;;;5050820;28;20115;-67
2023/07/14 11:51:52;;;;;;;;;;;;;;;;;;5050137;28;19925;-67
2023/07/14 11:54:19;;;;;;;;;;;;;;;;;;5051247;28;20099;-68
2023/07/14 11:56:56;;;;;;;;;;;;;;;;;;5050948;28;19931;-68
2023/07/14 11:59:24;;;;;;;;;;;;;;;;;;5050966;28;20008;-67
2023/07/14 12:01:51;;;;;;;;;;;;;;;;;;5050297;28;19931;-67
2023/07/14 12:04:23;;;;;;;;;;;;;;;;;;5050490;28;19931;-67
2023/07/14 12:06:51;;;;;;;;;;;;;;;;;;5047305;28;19968;-68
2023/07/14 12:09:18;;;;;;;;;;;;;;;;;;5039451;28;19936;-67
2023/07/14 12:11:50;;;;;;;;;;;;;;;;;;5042164;28;19925;-68
2023/07/14 12:14:26;;;;;;;;;;;;;;;;;;5034155;28;19967;-68
2023/07/14 12:16:53;;;;;;;;;;;;;;;;;;5039140;28;20034;-67
2023/07/14 12:19:22;;;;;;;;;;;;;;;;;;5041429;28;19932;-68
2023/07/14 12:21:57;;;;;;;;;;;;;;;;;;5043438;28;19925;-67
2023/07/14 12:24:28;;;;;;;;;;;;;;;;;;5037926;28;19925;-68
2023/07/14 12:27:00;;;;;;;;;;;;;;;;;;5042417;28;19943;-67
2023/07/14 12:29:26;;;;;;;;;;;;;;;;;;5042756;28;19932;-67
2023/07/14 12:31:53;;;;;;;;;;;;;;;;;;5049421;28;19931;-68
2023/07/14 12:34:20;;;;;;;;;;;;;;;;;;5043192;28;19933;-67
2023/07/14 12:36:47;;;;;;;;;;;;;;;;;;5039738;28;19929;-67
2023/07/14 12:39:15;;;;;;;;;;;;;;;;;;5044674;28;19935;-67
2023/07/14 12:41:44;;;;;;;;;;;;;;;;;;5044903;28;19925;-68
2023/07/14 12:44:15;;;;;;;;;;;;;;;;;;5049862;28;19929;-68
2023/07/14 12:46:42;;;;;;;;;;;;;;;;;;5052990;28;20004;-68
2023/07/14 12:49:17;;;;;;;;;;;;;;;;;;5049519;28;19935;-68
2023/07/14 12:51:44;;;;;;;;;;;;;;;;;;5051448;28;19924;-68
2023/07/14 12:54:15;;;;;;;;;;;;;;;;;;5052336;28;19925;-68
2023/07/14 12:56:43;;;;;;;;;;;;;;;;;;5033435;28;20422;-68
2023/07/14 12:59:13;;;;;;;;;;;;;;;;;;5034273;28;19935;-68
2023/07/14 13:01:42;;;;;;;;;;;;;;;;;;5033128;28;19929;-68
2023/07/14 13:04:09;;;;;;;;;;;;;;;;;;5043099;28;20375;-67
2023/07/14 13:06:36;;;;;;;;;;;;;;;;;;5048743;28;19929;-67
2023/07/14 13:09:08;;;;;;;;;;;;;;;;;;5051605;28;20297;-68
2023/07/14 13:11:36;;;;;;;;;;;;;;;;;;5032941;28;19932;-68
2023/07/14 13:14:04;;;;;;;;;;;;;;;;;;5046165;28;20428;-68
2023/07/14 13:16:33;;;;;;;;;;;;;;;;;;5053091;28;20367;-67
2023/07/14 13:19:00;;;;;;;;;;;;;;;;;;5052415;28;19932;-67
2023/07/14 13:21:30;;;;;;;;;;;;;;;;;;5052936;28;19925;-68
2023/07/14 13:23:56;;;;;;;;;;;;;;;;;;5053019;28;19924;-68
2023/07/14 13:26:23;;;;;;;;;;;;;;;;;;5053635;28;19972;-68
2023/07/14 13:28:55;;;;;;;;;;;;;;;;;;5052830;28;19929;-68
2023/07/14 13:31:28;;;;;;;;;;;;;;;;;;5052687;28;19925;-68
2023/07/14 13:33:56;;;;;;;;;;;;;;;;;;5053251;28;20344;-68
2023/07/14 13:36:23;;;;;;;;;;;;;;;;;;5053005;28;19931;-68
2023/07/14 13:38:50;;;;;;;;;;;;;;;;;;5052777;28;20348;-67
2023/07/14 13:41:17;;;;;;;;;;;;;;;;;;5052878;28;20283;-68
2023/07/14 13:43:44;;;;;;;;;;;;;;;;;;5052869;28;19931;-68
2023/07/14 13:46:13;;;;;;;;;;;;;;;;;;5052680;28;19932;-67
2023/07/14 13:48:42;;;;;;;;;;;;;;;;;;5053030;28;20585;-68
2023/07/14 13:51:13;;;;;;;;;;;;;;;;;;5051900;28;20294;-67
2023/07/14 13:53:39;;;;;;;;;;;;;;;;;;5052774;28;19935;-67
2023/07/14 13:56:06;;;;;;;;;;;;;;;;;;5052588;28;19931;-67
2023/07/14 13:58:33;;;;;;;;;;;;;;;;;;5052043;28;19929;-67
2023/07/14 14:01:00;;;;;;;;;;;;;;;;;;5052584;28;19928;-68
2023/07/14 14:03:26;;;;;;;;;;;;;;;;;;5052462;28;20441;-68
2023/07/14 14:05:54;;;;;;;;;;;;;;;;;;5052624;28;19970;-67
2023/07/14 14:08:20;;;;;;;;;;;;;;;;;;5052244;28;20287;-68
2023/07/14 14:10:47;;;;;;;;;;;;;;;;;;5052478;28;19947;-68
2023/07/14 14:13:14;;;;;;;;;;;;;;;;;;5051923;28;19955;-68
2023/07/14 14:15:42;;;;;;;;;;;;;;;;;;5052744;28;20318;-68
2023/07/14 14:18:13;;;;;;;;;;;;;;;;;;5052365;28;19932;-68
2023/07/14 14:20:40;;;;;;;;;;;;;;;;;;5051115;28;20031;-68
2023/07/14 14:23:11;;;;;;;;;;;;;;;;;;5052607;28;19932;-68
2023/07/14 14:25:37;;;;;;;;;;;;;;;;;;5052253;28;20528;-68
2023/07/14 14:28:03;;;;;;;;;;;;;;;;;;5052166;28;19931;-68
2023/07/14 14:30:32;;;;;;;;;;;;;;;;;;5051357;28;19929;-68
2023/07/14 14:32:59;;;;;;;;;;;;;;;;;;5051972;28;20279;-68
2023/07/14 14:35:26;;;;;;;;;;;;;;;;;;5051501;28;19925;-69
2023/07/14 14:37:55;;;;;;;;;;;;;;;;;;5051749;28;19925;-68
2023/07/14 14:40:22;;;;;;;;;;;;;;;;;;5051066;28;20023;-68
2023/07/14 14:42:49;;;;;;;;;;;;;;;;;;5052005;28;19925;-68
2023/07/14 14:45:20;;;;;;;;;;;;;;;;;;5051944;28;19925;-67
2023/07/14 14:47:46;;;;;;;;;;;;;;;;;;5051682;28;20016;-68
2023/07/14 14:50:14;;;;;;;;;;;;;;;;;;5050571;28;20379;-68
2023/07/14 14:52:40;;;;;;;;;;;;;;;;;;5051268;28;20333;-68
2023/07/14 14:55:08;;;;;;;;;;;;;;;;;;5051608;28;20019;-67
2023/07/14 14:57:36;;;;;;;;;;;;;;;;;;5051318;28;20007;-68
2023/07/14 15:00:02;;;;;;;;;;;;;;;;;;5051537;28;20330;-68
2023/07/14 15:02:28;;;;;;;;;;;;;;;;;;5051557;28;20448;-68
2023/07/14 15:04:55;;;;;;;;;;;;;;;;;;5051355;28;19931;-68
2023/07/14 15:07:21;;;;;;;;;;;;;;;;;;5051001;28;19939;-68
2023/07/14 15:09:47;;;;;;;;;;;;;;;;;;5051659;28;20023;-68
2023/07/14 15:12:16;;;;;;;;;;;;;;;;;;5051372;28;19931;-68
2023/07/14 15:14:48;;;;;;;;;;;;;;;;;;5052032;28;20409;-68
2023/07/14 15:17:22;;;;;;;;;;;;;;;;;;5051319;28;19925;-68
2023/07/14 15:19:49;;;;;;;;;;;;;;;;;;5050917;28;19951;-68
2023/07/14 15:22:18;;;;;;;;;;;;;;;;;;5049756;28;19931;-68
2023/07/14 15:24:45;;;;;;;;;;;;;;;;;;5051428;28;19925;-68
2023/07/14 15:27:15;;;;;;;;;;;;;;;;;;5051775;28;20452;-68
2023/07/14 15:29:41;;;;;;;;;;;;;;;;;;5050077;28;19924;-66
2023/07/14 15:32:11;;;;;;;;;;;;;;;;;;5050597;28;20290;-69
2023/07/14 15:34:37;;;;;;;;;;;;;;;;;;5050550;28;19925;-68
2023/07/14 15:37:03;;;;;;;;;;;;;;;;;;5051209;28;19931;-69
2023/07/14 15:39:30;;;;;;;;;;;;;;;;;;5050164;28;19948;-68
2023/07/14 15:41:58;;;;;;;;;;;;;;;;;;5050771;28;19925;-69
2023/07/14 15:44:24;;;;;;;;;;;;;;;;;;5050436;28;19925;-69
2023/07/14 15:46:54;;;;;;;;;;;;;;;;;;5075239;22;20014;-67
2023/07/14 15:49:24;;;;;;;;;;;;;;;;;;5070318;28;19924;-67
2023/07/14 15:51:53;;;;;;;;;;;;;;;;;;5070737;28;19925;-67
2023/07/14 15:54:23;;;;;;;;;;;;;;;;;;5070207;28;19931;-68
2023/07/14 15:56:49;;;;;;;;;;;;;;;;;;5070793;28;20011;-68
2023/07/14 15:59:16;;;;;;;;;;;;;;;;;;5070363;28;19924;-67
2023/07/14 16:01:42;;;;;;;;;;;;;;;;;;5072113;28;19924;-67
2023/07/14 16:04:08;;;;;;;;;;;;;;;;;;5074848;28;19931;-67
2023/07/14 16:06:38;;;;;;;;;;;;;;;;;;5074097;28;19925;-67
2023/07/14 16:09:06;;;;;;;;;;;;;;;;;;5074648;28;20292;-67
2023/07/14 16:11:33;;;;;;;;;;;;;;;;;;5073900;28;20397;-67
2023/07/14 16:14:01;;;;;;;;;;;;;;;;;;5074277;28;19982;-67
2023/07/14 16:16:27;;;;;;;;;;;;;;;;;;5073776;28;19929;-67
2023/07/14 16:18:54;;;;;;;;;;;;;;;;;;5074123;28;19930;-68
2023/07/14 16:21:23;;;;;;;;;;;;;;;;;;5074087;28;20208;-66
2023/07/14 16:23:52;;;;;;;;;;;;;;;;;;5073422;28;19974;-67
2023/07/14 16:26:18;;;;;;;;;;;;;;;;;;5073840;28;19932;-67
2023/07/14 16:28:45;;;;;;;;;;;;;;;;;;5073933;28;19931;-67
2023/07/14 16:31:12;;;;;;;;;;;;;;;;;;5073157;28;19925;-67
2023/07/14 16:33:38;;;;;;;;;;;;;;;;;;5074274;28;19924;-67
2023/07/14 16:36:05;;;;;;;;;;;;;;;;;;5073963;28;20135;-66
2023/07/14 16:38:34;;;;;;;;;;;;;;;;;;5073711;28;20385;-66
2023/07/14 16:41:10;;;;;;;;;;;;;;;;;;5073861;28;19967;-66
2023/07/14 16:43:37;;;;;;;;;;;;;;;;;;5073857;28;19924;-67
2023/07/14 16:46:03;;;;;;;;;;;;;;;;;;5074196;28;20145;-66
2023/07/14 16:48:30;;;;;;;;;;;;;;;;;;5073212;28;19935;-66
2023/07/14 16:50:56;;;;;;;;;;;;;;;;;;5073892;28;19951;-67
2023/07/14 16:53:24;;;;;;;;;;;;;;;;;;5073425;28;19924;-67